sensor_id;sensor_type;location;lat;lon;timestamp;P1;durP1;ratioP1;P2;durP2;ratioP2
5587;SDS011;2816;49.778;9.986;2022-12-18T00:01:01;47.40;;;21.57;;
5587;SDS011;2816;49.778;9.986;2022-12-18T00:03:31;43.10;;;18.23;;
5587;SDS011;2816;49.778;9.986;2022-12-18T00:05:59;36.50;;;19.33;;
5587;SDS011;2816;49.778;9.986;2022-12-18T00:08:26;34.43;;;17.87;;
5587;SDS011;2816;49.778;9.986;2022-12-18T00:10:53;28.70;;;15.77;;
5587;SDS011;2816;49.778;9.986;2022-12-18T00:13:20;27.10;;;14.97;;
5587;SDS011;2816;49.778;9.986;2022-12-18T00:15:49;32.27;;;15.40;;
5587;SDS011;2816;49.778;9.986;2022-12-18T00:18:15;31.67;;;16.20;;
5587;SDS011;2816;49.778;9.986;2022-12-18T00:20:42;40.50;;;17.60;;
5587;SDS011;2816;49.778;9.986;2022-12-18T00:23:09;30.57;;;17.03;;
5587;SDS011;2816;49.778;9.986;2022-12-18T00:25:36;32.73;;;17.50;;
5587;SDS011;2816;49.778;9.986;2022-12-18T00:28:03;35.83;;;17.97;;
5587;SDS011;2816;49.778;9.986;2022-12-18T00:30:30;31.90;;;17.43;;
5587;SDS011;2816;49.778;9.986;2022-12-18T00:32:59;37.83;;;19.57;;
5587;SDS011;2816;49.778;9.986;2022-12-18T00:35:26;37.50;;;19.50;;
5587;SDS011;2816;49.778;9.986;2022-12-18T00:37:52;39.03;;;19.63;;
5587;SDS011;2816;49.778;9.986;2022-12-18T00:40:19;34.60;;;17.17;;
5587;SDS011;2816;49.778;9.986;2022-12-18T00:42:46;32.63;;;18.43;;
5587;SDS011;2816;49.778;9.986;2022-12-18T00:45:21;34.73;;;17.50;;
5587;SDS011;2816;49.778;9.986;2022-12-18T00:47:51;24.10;;;14.87;;
5587;SDS011;2816;49.778;9.986;2022-12-18T00:50:20;29.07;;;15.13;;
5587;SDS011;2816;49.778;9.986;2022-12-18T00:52:47;31.17;;;16.40;;
5587;SDS011;2816;49.778;9.986;2022-12-18T00:55:14;34.93;;;16.40;;
5587;SDS011;2816;49.778;9.986;2022-12-18T00:57:41;33.10;;;16.23;;
5587;SDS011;2816;49.778;9.986;2022-12-18T01:00:09;30.60;;;15.63;;
5587;SDS011;2816;49.778;9.986;2022-12-18T01:02:39;30.77;;;16.13;;
5587;SDS011;2816;49.778;9.986;2022-12-18T01:05:07;28.70;;;16.00;;
5587;SDS011;2816;49.778;9.986;2022-12-18T01:07:36;34.53;;;16.30;;
5587;SDS011;2816;49.778;9.986;2022-12-18T01:10:04;28.43;;;15.43;;
5587;SDS011;2816;49.778;9.986;2022-12-18T01:12:32;30.10;;;15.27;;
5587;SDS011;2816;49.778;9.986;2022-12-18T01:14:59;33.60;;;16.50;;
5587;SDS011;2816;49.778;9.986;2022-12-18T01:17:26;33.63;;;14.90;;
5587;SDS011;2816;49.778;9.986;2022-12-18T01:19:53;30.30;;;14.80;;
5587;SDS011;2816;49.778;9.986;2022-12-18T01:22:19;36.93;;;17.23;;
5587;SDS011;2816;49.778;9.986;2022-12-18T01:24:48;28.70;;;15.80;;
5587;SDS011;2816;49.778;9.986;2022-12-18T01:27:15;35.93;;;16.53;;
5587;SDS011;2816;49.778;9.986;2022-12-18T01:29:42;30.57;;;16.40;;
5587;SDS011;2816;49.778;9.986;2022-12-18T01:32:09;35.37;;;16.80;;
5587;SDS011;2816;49.778;9.986;2022-12-18T01:34:36;30.80;;;15.50;;
5587;SDS011;2816;49.778;9.986;2022-12-18T01:37:03;27.27;;;15.50;;
5587;SDS011;2816;49.778;9.986;2022-12-18T01:39:30;35.23;;;16.27;;
5587;SDS011;2816;49.778;9.986;2022-12-18T01:41:59;33.10;;;15.53;;
5587;SDS011;2816;49.778;9.986;2022-12-18T01:47:21;33.00;;;15.87;;
5587;SDS011;2816;49.778;9.986;2022-12-18T01:49:51;32.20;;;16.47;;
5587;SDS011;2816;49.778;9.986;2022-12-18T01:52:19;35.97;;;15.73;;
5587;SDS011;2816;49.778;9.986;2022-12-18T01:54:48;26.73;;;14.93;;
5587;SDS011;2816;49.778;9.986;2022-12-18T01:57:17;34.83;;;16.40;;
5587;SDS011;2816;49.778;9.986;2022-12-18T01:59:45;34.10;;;15.60;;
5587;SDS011;2816;49.778;9.986;2022-12-18T02:02:17;25.07;;;14.27;;
5587;SDS011;2816;49.778;9.986;2022-12-18T02:04:44;30.53;;;14.53;;
5587;SDS011;2816;49.778;9.986;2022-12-18T02:07:16;24.80;;;13.50;;
5587;SDS011;2816;49.778;9.986;2022-12-18T02:09:51;38.93;;;16.53;;
5587;SDS011;2816;49.778;9.986;2022-12-18T02:12:28;23.90;;;13.77;;
5587;SDS011;2816;49.778;9.986;2022-12-18T02:15:03;25.60;;;13.10;;
5587;SDS011;2816;49.778;9.986;2022-12-18T02:17:36;32.43;;;14.57;;
5587;SDS011;2816;49.778;9.986;2022-12-18T02:20:10;25.70;;;14.20;;
5587;SDS011;2816;49.778;9.986;2022-12-18T02:22:45;27.93;;;14.30;;
5587;SDS011;2816;49.778;9.986;2022-12-18T02:25:25;36.93;;;16.23;;
5587;SDS011;2816;49.778;9.986;2022-12-18T02:28:06;37.57;;;14.77;;
5587;SDS011;2816;49.778;9.986;2022-12-18T02:30:37;26.43;;;13.97;;
5587;SDS011;2816;49.778;9.986;2022-12-18T02:33:06;27.70;;;14.83;;
5587;SDS011;2816;49.778;9.986;2022-12-18T02:35:35;28.00;;;15.37;;
5587;SDS011;2816;49.778;9.986;2022-12-18T02:38:04;26.90;;;14.60;;
5587;SDS011;2816;49.778;9.986;2022-12-18T02:40:31;27.80;;;14.07;;
5587;SDS011;2816;49.778;9.986;2022-12-18T02:43:02;27.67;;;12.83;;
5587;SDS011;2816;49.778;9.986;2022-12-18T02:45:34;28.13;;;14.60;;
5587;SDS011;2816;49.778;9.986;2022-12-18T02:48:01;29.03;;;13.80;;
5587;SDS011;2816;49.778;9.986;2022-12-18T02:50:30;23.60;;;12.83;;
5587;SDS011;2816;49.778;9.986;2022-12-18T02:53:04;27.30;;;13.70;;
5587;SDS011;2816;49.778;9.986;2022-12-18T02:55:40;26.73;;;14.83;;
5587;SDS011;2816;49.778;9.986;2022-12-18T02:58:17;25.27;;;13.13;;
5587;SDS011;2816;49.778;9.986;2022-12-18T03:00:56;29.07;;;15.17;;
5587;SDS011;2816;49.778;9.986;2022-12-18T03:03:26;25.77;;;13.13;;
5587;SDS011;2816;49.778;9.986;2022-12-18T03:05:58;27.20;;;13.63;;
5587;SDS011;2816;49.778;9.986;2022-12-18T03:08:30;29.20;;;14.23;;
5587;SDS011;2816;49.778;9.986;2022-12-18T03:11:01;24.37;;;14.47;;
5587;SDS011;2816;49.778;9.986;2022-12-18T03:13:31;32.13;;;14.90;;
5587;SDS011;2816;49.778;9.986;2022-12-18T03:16:04;27.90;;;14.43;;
5587;SDS011;2816;49.778;9.986;2022-12-18T03:18:34;21.83;;;13.37;;
5587;SDS011;2816;49.778;9.986;2022-12-18T03:21:05;28.47;;;14.00;;
5587;SDS011;2816;49.778;9.986;2022-12-18T03:23:34;26.57;;;13.67;;
5587;SDS011;2816;49.778;9.986;2022-12-18T03:26:05;24.40;;;12.63;;
5587;SDS011;2816;49.778;9.986;2022-12-18T03:28:37;35.50;;;15.07;;
5587;SDS011;2816;49.778;9.986;2022-12-18T03:31:10;28.17;;;15.53;;
5587;SDS011;2816;49.778;9.986;2022-12-18T03:33:41;29.93;;;15.10;;
5587;SDS011;2816;49.778;9.986;2022-12-18T03:36:11;28.53;;;15.43;;
5587;SDS011;2816;49.778;9.986;2022-12-18T03:38:38;26.00;;;14.67;;
5587;SDS011;2816;49.778;9.986;2022-12-18T03:41:07;25.83;;;14.10;;
5587;SDS011;2816;49.778;9.986;2022-12-18T03:43:43;26.23;;;14.17;;
5587;SDS011;2816;49.778;9.986;2022-12-18T03:46:17;31.27;;;14.33;;
5587;SDS011;2816;49.778;9.986;2022-12-18T03:48:52;22.63;;;13.33;;
5587;SDS011;2816;49.778;9.986;2022-12-18T03:51:26;30.37;;;12.50;;
5587;SDS011;2816;49.778;9.986;2022-12-18T03:53:58;41.40;;;16.27;;
5587;SDS011;2816;49.778;9.986;2022-12-18T03:56:28;37.47;;;16.13;;
5587;SDS011;2816;49.778;9.986;2022-12-18T03:58:58;26.70;;;14.63;;
5587;SDS011;2816;49.778;9.986;2022-12-18T04:01:30;27.80;;;14.53;;
5587;SDS011;2816;49.778;9.986;2022-12-18T04:04:00;24.40;;;13.37;;
5587;SDS011;2816;49.778;9.986;2022-12-18T04:06:28;26.03;;;13.13;;
5587;SDS011;2816;49.778;9.986;2022-12-18T04:08:56;26.80;;;13.60;;
5587;SDS011;2816;49.778;9.986;2022-12-18T04:11:24;30.47;;;13.60;;
5587;SDS011;2816;49.778;9.986;2022-12-18T04:13:54;27.40;;;13.73;;
5587;SDS011;2816;49.778;9.986;2022-12-18T04:16:21;27.23;;;14.10;;
5587;SDS011;2816;49.778;9.986;2022-12-18T04:18:50;26.50;;;14.17;;
5587;SDS011;2816;49.778;9.986;2022-12-18T04:21:16;24.90;;;14.00;;
5587;SDS011;2816;49.778;9.986;2022-12-18T04:23:44;27.03;;;13.10;;
5587;SDS011;2816;49.778;9.986;2022-12-18T04:26:11;21.27;;;12.60;;
5587;SDS011;2816;49.778;9.986;2022-12-18T04:28:38;29.00;;;14.23;;
5587;SDS011;2816;49.778;9.986;2022-12-18T04:31:05;22.77;;;12.70;;
5587;SDS011;2816;49.778;9.986;2022-12-18T04:33:32;33.07;;;14.80;;
5587;SDS011;2816;49.778;9.986;2022-12-18T04:36:00;26.13;;;14.43;;
5587;SDS011;2816;49.778;9.986;2022-12-18T04:38:27;28.93;;;14.53;;
5587;SDS011;2816;49.778;9.986;2022-12-18T04:40:54;28.17;;;13.20;;
5587;SDS011;2816;49.778;9.986;2022-12-18T04:43:21;26.97;;;14.07;;
5587;SDS011;2816;49.778;9.986;2022-12-18T04:45:47;25.00;;;13.30;;
5587;SDS011;2816;49.778;9.986;2022-12-18T04:48:14;24.17;;;13.10;;
5587;SDS011;2816;49.778;9.986;2022-12-18T04:50:41;22.03;;;12.70;;
5587;SDS011;2816;49.778;9.986;2022-12-18T04:53:09;27.33;;;14.30;;
5587;SDS011;2816;49.778;9.986;2022-12-18T04:55:36;25.70;;;13.10;;
5587;SDS011;2816;49.778;9.986;2022-12-18T04:58:03;26.17;;;12.60;;
5587;SDS011;2816;49.778;9.986;2022-12-18T05:00:30;22.10;;;12.70;;
5587;SDS011;2816;49.778;9.986;2022-12-18T05:02:57;25.73;;;13.10;;
5587;SDS011;2816;49.778;9.986;2022-12-18T05:05:26;22.43;;;12.83;;
5587;SDS011;2816;49.778;9.986;2022-12-18T05:07:53;24.77;;;12.90;;
5587;SDS011;2816;49.778;9.986;2022-12-18T05:10:21;27.43;;;12.93;;
5587;SDS011;2816;49.778;9.986;2022-12-18T05:12:48;25.80;;;12.83;;
5587;SDS011;2816;49.778;9.986;2022-12-18T05:15:26;32.53;;;13.67;;
5587;SDS011;2816;49.778;9.986;2022-12-18T05:17:53;25.97;;;13.37;;
5587;SDS011;2816;49.778;9.986;2022-12-18T05:20:20;26.83;;;13.73;;
5587;SDS011;2816;49.778;9.986;2022-12-18T05:22:48;24.07;;;12.17;;
5587;SDS011;2816;49.778;9.986;2022-12-18T05:25:15;21.20;;;12.03;;
5587;SDS011;2816;49.778;9.986;2022-12-18T05:27:43;27.00;;;11.67;;
5587;SDS011;2816;49.778;9.986;2022-12-18T05:30:11;24.67;;;12.90;;
5587;SDS011;2816;49.778;9.986;2022-12-18T05:32:39;25.53;;;13.40;;
5587;SDS011;2816;49.778;9.986;2022-12-18T05:35:07;23.43;;;12.87;;
5587;SDS011;2816;49.778;9.986;2022-12-18T05:37:35;25.33;;;13.33;;
5587;SDS011;2816;49.778;9.986;2022-12-18T05:40:02;25.67;;;12.80;;
5587;SDS011;2816;49.778;9.986;2022-12-18T05:42:30;27.43;;;13.47;;
5587;SDS011;2816;49.778;9.986;2022-12-18T05:44:58;28.20;;;12.73;;
5587;SDS011;2816;49.778;9.986;2022-12-18T05:47:26;26.87;;;14.30;;
5587;SDS011;2816;49.778;9.986;2022-12-18T05:49:54;25.77;;;12.93;;
5587;SDS011;2816;49.778;9.986;2022-12-18T05:52:21;24.60;;;12.50;;
5587;SDS011;2816;49.778;9.986;2022-12-18T05:54:48;31.67;;;16.33;;
5587;SDS011;2816;49.778;9.986;2022-12-18T05:57:15;27.47;;;15.27;;
5587;SDS011;2816;49.778;9.986;2022-12-18T05:59:42;25.40;;;13.37;;
5587;SDS011;2816;49.778;9.986;2022-12-18T06:02:11;29.53;;;14.43;;
5587;SDS011;2816;49.778;9.986;2022-12-18T06:04:38;33.83;;;15.90;;
5587;SDS011;2816;49.778;9.986;2022-12-18T06:07:05;28.70;;;14.47;;
5587;SDS011;2816;49.778;9.986;2022-12-18T06:09:32;35.33;;;16.70;;
5587;SDS011;2816;49.778;9.986;2022-12-18T06:11:59;31.33;;;16.20;;
5587;SDS011;2816;49.778;9.986;2022-12-18T06:14:26;25.20;;;13.30;;
5587;SDS011;2816;49.778;9.986;2022-12-18T06:16:53;30.73;;;15.57;;
5587;SDS011;2816;49.778;9.986;2022-12-18T06:19:21;33.70;;;15.40;;
5587;SDS011;2816;49.778;9.986;2022-12-18T06:21:48;33.30;;;15.13;;
5587;SDS011;2816;49.778;9.986;2022-12-18T06:24:16;40.70;;;17.07;;
5587;SDS011;2816;49.778;9.986;2022-12-18T06:26:43;36.97;;;15.37;;
5587;SDS011;2816;49.778;9.986;2022-12-18T06:29:10;38.80;;;17.20;;
5587;SDS011;2816;49.778;9.986;2022-12-18T06:31:37;34.10;;;14.53;;
5587;SDS011;2816;49.778;9.986;2022-12-18T06:34:04;34.93;;;14.97;;
5587;SDS011;2816;49.778;9.986;2022-12-18T06:36:32;38.73;;;16.57;;
5587;SDS011;2816;49.778;9.986;2022-12-18T06:38:59;32.97;;;16.50;;
5587;SDS011;2816;49.778;9.986;2022-12-18T06:41:26;34.70;;;15.73;;
5587;SDS011;2816;49.778;9.986;2022-12-18T06:43:53;38.13;;;16.67;;
5587;SDS011;2816;49.778;9.986;2022-12-18T06:46:20;43.77;;;16.90;;
5587;SDS011;2816;49.778;9.986;2022-12-18T06:48:47;37.80;;;17.43;;
5587;SDS011;2816;49.778;9.986;2022-12-18T06:51:16;41.83;;;17.93;;
5587;SDS011;2816;49.778;9.986;2022-12-18T06:53:45;38.63;;;16.70;;
5587;SDS011;2816;49.778;9.986;2022-12-18T06:56:12;35.80;;;18.00;;
5587;SDS011;2816;49.778;9.986;2022-12-18T06:58:39;39.23;;;17.63;;
5587;SDS011;2816;49.778;9.986;2022-12-18T07:01:07;49.97;;;19.00;;
5587;SDS011;2816;49.778;9.986;2022-12-18T07:03:36;48.70;;;18.90;;
5587;SDS011;2816;49.778;9.986;2022-12-18T07:06:03;38.90;;;15.40;;
5587;SDS011;2816;49.778;9.986;2022-12-18T07:08:30;55.23;;;18.93;;
5587;SDS011;2816;49.778;9.986;2022-12-18T07:10:59;55.47;;;20.23;;
5587;SDS011;2816;49.778;9.986;2022-12-18T07:13:30;44.50;;;18.00;;
5587;SDS011;2816;49.778;9.986;2022-12-18T07:16:02;48.60;;;20.07;;
5587;SDS011;2816;49.778;9.986;2022-12-18T07:18:34;53.63;;;18.20;;
5587;SDS011;2816;49.778;9.986;2022-12-18T07:21:04;49.97;;;19.70;;
5587;SDS011;2816;49.778;9.986;2022-12-18T07:23:32;43.77;;;18.20;;
5587;SDS011;2816;49.778;9.986;2022-12-18T07:26:02;51.30;;;18.40;;
5587;SDS011;2816;49.778;9.986;2022-12-18T07:28:29;41.30;;;18.70;;
5587;SDS011;2816;49.778;9.986;2022-12-18T07:30:56;52.13;;;22.30;;
5587;SDS011;2816;49.778;9.986;2022-12-18T07:33:23;59.63;;;25.70;;
5587;SDS011;2816;49.778;9.986;2022-12-18T07:35:50;61.63;;;24.90;;
5587;SDS011;2816;49.778;9.986;2022-12-18T07:38:17;48.07;;;22.13;;
5587;SDS011;2816;49.778;9.986;2022-12-18T07:40:44;54.00;;;20.70;;
5587;SDS011;2816;49.778;9.986;2022-12-18T07:43:12;45.50;;;20.37;;
5587;SDS011;2816;49.778;9.986;2022-12-18T07:45:39;39.80;;;19.33;;
5587;SDS011;2816;49.778;9.986;2022-12-18T07:48:06;38.20;;;17.20;;
5587;SDS011;2816;49.778;9.986;2022-12-18T07:50:33;43.53;;;18.87;;
5587;SDS011;2816;49.778;9.986;2022-12-18T07:53:00;43.20;;;19.27;;
5587;SDS011;2816;49.778;9.986;2022-12-18T07:55:29;39.73;;;18.73;;
5587;SDS011;2816;49.778;9.986;2022-12-18T07:57:56;48.67;;;22.13;;
5587;SDS011;2816;49.778;9.986;2022-12-18T08:00:24;52.47;;;22.40;;
5587;SDS011;2816;49.778;9.986;2022-12-18T08:02:51;47.07;;;21.30;;
5587;SDS011;2816;49.778;9.986;2022-12-18T08:05:18;39.70;;;19.17;;
5587;SDS011;2816;49.778;9.986;2022-12-18T08:07:45;46.93;;;19.83;;
5587;SDS011;2816;49.778;9.986;2022-12-18T08:10:13;42.63;;;19.17;;
5587;SDS011;2816;49.778;9.986;2022-12-18T08:12:40;38.70;;;16.67;;
5587;SDS011;2816;49.778;9.986;2022-12-18T08:15:08;37.70;;;16.80;;
5587;SDS011;2816;49.778;9.986;2022-12-18T08:17:37;38.10;;;19.43;;
5587;SDS011;2816;49.778;9.986;2022-12-18T08:20:04;40.57;;;19.27;;
5587;SDS011;2816;49.778;9.986;2022-12-18T08:22:33;37.80;;;18.00;;
5587;SDS011;2816;49.778;9.986;2022-12-18T08:25:02;36.77;;;17.30;;
5587;SDS011;2816;49.778;9.986;2022-12-18T08:27:30;40.77;;;18.80;;
5587;SDS011;2816;49.778;9.986;2022-12-18T08:29:57;37.37;;;17.17;;
5587;SDS011;2816;49.778;9.986;2022-12-18T08:32:24;38.13;;;17.77;;
5587;SDS011;2816;49.778;9.986;2022-12-18T08:34:54;35.37;;;17.13;;
5587;SDS011;2816;49.778;9.986;2022-12-18T08:37:20;42.73;;;18.63;;
5587;SDS011;2816;49.778;9.986;2022-12-18T08:39:47;38.43;;;17.40;;
5587;SDS011;2816;49.778;9.986;2022-12-18T08:42:14;41.93;;;18.30;;
5587;SDS011;2816;49.778;9.986;2022-12-18T08:45:04;39.23;;;17.30;;
5587;SDS011;2816;49.778;9.986;2022-12-18T08:47:32;35.70;;;17.73;;
5587;SDS011;2816;49.778;9.986;2022-12-18T08:50:00;41.70;;;19.03;;
5587;SDS011;2816;49.778;9.986;2022-12-18T08:52:27;45.50;;;19.40;;
5587;SDS011;2816;49.778;9.986;2022-12-18T08:54:54;42.67;;;18.20;;
5587;SDS011;2816;49.778;9.986;2022-12-18T08:57:21;40.43;;;17.63;;
5587;SDS011;2816;49.778;9.986;2022-12-18T08:59:48;41.13;;;18.37;;
5587;SDS011;2816;49.778;9.986;2022-12-18T09:02:14;45.40;;;21.17;;
5587;SDS011;2816;49.778;9.986;2022-12-18T09:04:42;44.70;;;19.80;;
5587;SDS011;2816;49.778;9.986;2022-12-18T09:07:10;44.50;;;20.10;;
5587;SDS011;2816;49.778;9.986;2022-12-18T09:09:37;45.73;;;19.00;;
5587;SDS011;2816;49.778;9.986;2022-12-18T09:12:04;47.13;;;20.80;;
5587;SDS011;2816;49.778;9.986;2022-12-18T09:14:31;48.80;;;21.00;;
5587;SDS011;2816;49.778;9.986;2022-12-18T09:16:58;43.17;;;19.40;;
5587;SDS011;2816;49.778;9.986;2022-12-18T09:19:24;47.80;;;19.70;;
5587;SDS011;2816;49.778;9.986;2022-12-18T09:21:51;45.83;;;18.90;;
5587;SDS011;2816;49.778;9.986;2022-12-18T09:24:20;45.20;;;19.00;;
5587;SDS011;2816;49.778;9.986;2022-12-18T09:26:52;48.83;;;20.87;;
5587;SDS011;2816;49.778;9.986;2022-12-18T09:29:20;49.63;;;21.50;;
5587;SDS011;2816;49.778;9.986;2022-12-18T09:31:47;42.93;;;20.27;;
5587;SDS011;2816;49.778;9.986;2022-12-18T09:34:14;49.77;;;17.77;;
5587;SDS011;2816;49.778;9.986;2022-12-18T09:36:41;54.13;;;20.03;;
5587;SDS011;2816;49.778;9.986;2022-12-18T09:39:08;46.97;;;19.53;;
5587;SDS011;2816;49.778;9.986;2022-12-18T09:41:46;43.27;;;17.60;;
5587;SDS011;2816;49.778;9.986;2022-12-18T09:44:20;47.30;;;18.20;;
5587;SDS011;2816;49.778;9.986;2022-12-18T09:46:51;43.13;;;19.63;;
5587;SDS011;2816;49.778;9.986;2022-12-18T09:49:28;40.93;;;17.57;;
5587;SDS011;2816;49.778;9.986;2022-12-18T09:51:57;42.90;;;18.50;;
5587;SDS011;2816;49.778;9.986;2022-12-18T09:54:30;41.30;;;20.70;;
5587;SDS011;2816;49.778;9.986;2022-12-18T09:57:02;40.07;;;17.90;;
5587;SDS011;2816;49.778;9.986;2022-12-18T09:59:30;40.90;;;17.60;;
5587;SDS011;2816;49.778;9.986;2022-12-18T10:02:02;40.00;;;17.97;;
5587;SDS011;2816;49.778;9.986;2022-12-18T10:04:42;36.07;;;16.70;;
5587;SDS011;2816;49.778;9.986;2022-12-18T10:07:11;38.83;;;18.10;;
5587;SDS011;2816;49.778;9.986;2022-12-18T10:09:43;37.03;;;16.90;;
5587;SDS011;2816;49.778;9.986;2022-12-18T10:12:20;37.87;;;16.47;;
5587;SDS011;2816;49.778;9.986;2022-12-18T10:14:53;35.27;;;16.20;;
5587;SDS011;2816;49.778;9.986;2022-12-18T10:17:30;37.70;;;17.00;;
5587;SDS011;2816;49.778;9.986;2022-12-18T10:20:09;45.60;;;17.90;;
5587;SDS011;2816;49.778;9.986;2022-12-18T10:22:43;42.30;;;19.00;;
5587;SDS011;2816;49.778;9.986;2022-12-18T10:25:20;45.97;;;17.77;;
5587;SDS011;2816;49.778;9.986;2022-12-18T10:27:53;40.10;;;18.77;;
5587;SDS011;2816;49.778;9.986;2022-12-18T10:30:23;37.70;;;17.17;;
5587;SDS011;2816;49.778;9.986;2022-12-18T10:32:51;37.17;;;17.20;;
5587;SDS011;2816;49.778;9.986;2022-12-18T10:35:20;38.57;;;18.10;;
5587;SDS011;2816;49.778;9.986;2022-12-18T10:38:05;38.83;;;17.50;;
5587;SDS011;2816;49.778;9.986;2022-12-18T10:40:50;37.27;;;17.00;;
5587;SDS011;2816;49.778;9.986;2022-12-18T10:43:21;40.50;;;17.20;;
5587;SDS011;2816;49.778;9.986;2022-12-18T10:46:00;41.90;;;17.53;;
5587;SDS011;2816;49.778;9.986;2022-12-18T10:48:33;40.87;;;18.67;;
5587;SDS011;2816;49.778;9.986;2022-12-18T10:51:02;38.40;;;17.77;;
5587;SDS011;2816;49.778;9.986;2022-12-18T10:53:30;36.47;;;16.63;;
5587;SDS011;2816;49.778;9.986;2022-12-18T10:55:58;36.37;;;17.77;;
5587;SDS011;2816;49.778;9.986;2022-12-18T10:58:30;33.80;;;16.63;;
5587;SDS011;2816;49.778;9.986;2022-12-18T11:01:03;35.20;;;15.20;;
5587;SDS011;2816;49.778;9.986;2022-12-18T11:03:34;38.03;;;17.00;;
5587;SDS011;2816;49.778;9.986;2022-12-18T11:06:03;39.80;;;17.37;;
5587;SDS011;2816;49.778;9.986;2022-12-18T11:08:32;40.33;;;18.90;;
5587;SDS011;2816;49.778;9.986;2022-12-18T11:10:59;35.80;;;16.00;;
5587;SDS011;2816;49.778;9.986;2022-12-18T11:13:27;39.27;;;17.43;;
5587;SDS011;2816;49.778;9.986;2022-12-18T11:15:57;36.93;;;15.73;;
5587;SDS011;2816;49.778;9.986;2022-12-18T11:18:26;33.20;;;16.37;;
5587;SDS011;2816;49.778;9.986;2022-12-18T11:20:55;39.30;;;17.57;;
5587;SDS011;2816;49.778;9.986;2022-12-18T11:23:24;31.80;;;14.07;;
5587;SDS011;2816;49.778;9.986;2022-12-18T11:25:52;30.03;;;15.40;;
5587;SDS011;2816;49.778;9.986;2022-12-18T11:31:22;25.70;;;12.80;;
5587;SDS011;2816;49.778;9.986;2022-12-18T11:34:02;30.03;;;14.50;;
5587;SDS011;2816;49.778;9.986;2022-12-18T11:36:33;29.57;;;14.83;;
5587;SDS011;2816;49.778;9.986;2022-12-18T11:39:10;25.20;;;13.63;;
5587;SDS011;2816;49.778;9.986;2022-12-18T11:41:41;28.30;;;14.10;;
5587;SDS011;2816;49.778;9.986;2022-12-18T11:44:35;26.60;;;13.07;;
5587;SDS011;2816;49.778;9.986;2022-12-18T11:47:09;24.60;;;12.53;;
5587;SDS011;2816;49.778;9.986;2022-12-18T11:49:40;23.27;;;12.63;;
5587;SDS011;2816;49.778;9.986;2022-12-18T11:52:15;29.57;;;13.40;;
5587;SDS011;2816;49.778;9.986;2022-12-18T11:54:45;30.20;;;13.73;;
5587;SDS011;2816;49.778;9.986;2022-12-18T11:57:18;30.73;;;12.83;;
5587;SDS011;2816;49.778;9.986;2022-12-18T12:00:07;27.30;;;14.27;;
5587;SDS011;2816;49.778;9.986;2022-12-18T12:02:47;26.17;;;12.50;;
5587;SDS011;2816;49.778;9.986;2022-12-18T12:05:43;27.67;;;12.87;;
5587;SDS011;2816;49.778;9.986;2022-12-18T12:08:18;25.50;;;12.77;;
5587;SDS011;2816;49.778;9.986;2022-12-18T12:10:58;29.63;;;13.67;;
5587;SDS011;2816;49.778;9.986;2022-12-18T12:13:38;28.43;;;14.53;;
5587;SDS011;2816;49.778;9.986;2022-12-18T12:16:17;26.70;;;12.50;;
5587;SDS011;2816;49.778;9.986;2022-12-18T12:19:02;25.70;;;12.43;;
5587;SDS011;2816;49.778;9.986;2022-12-18T12:21:39;28.37;;;13.87;;
5587;SDS011;2816;49.778;9.986;2022-12-18T12:24:12;31.57;;;14.23;;
5587;SDS011;2816;49.778;9.986;2022-12-18T12:26:55;30.27;;;14.17;;
5587;SDS011;2816;49.778;9.986;2022-12-18T12:29:33;26.13;;;13.23;;
5587;SDS011;2816;49.778;9.986;2022-12-18T12:32:14;24.50;;;11.77;;
5587;SDS011;2816;49.778;9.986;2022-12-18T12:34:54;25.10;;;12.50;;
5587;SDS011;2816;49.778;9.986;2022-12-18T12:37:33;25.93;;;12.67;;
5587;SDS011;2816;49.778;9.986;2022-12-18T12:40:11;29.30;;;11.90;;
5587;SDS011;2816;49.778;9.986;2022-12-18T12:42:41;29.83;;;14.80;;
5587;SDS011;2816;49.778;9.986;2022-12-18T12:45:30;22.97;;;11.57;;
5587;SDS011;2816;49.778;9.986;2022-12-18T12:48:04;24.67;;;11.80;;
5587;SDS011;2816;49.778;9.986;2022-12-18T12:50:41;25.53;;;13.40;;
5587;SDS011;2816;49.778;9.986;2022-12-18T12:53:09;26.73;;;13.43;;
5587;SDS011;2816;49.778;9.986;2022-12-18T12:55:47;26.03;;;13.57;;
5587;SDS011;2816;49.778;9.986;2022-12-18T12:58:16;27.93;;;14.30;;
5587;SDS011;2816;49.778;9.986;2022-12-18T13:00:49;30.90;;;13.40;;
5587;SDS011;2816;49.778;9.986;2022-12-18T13:03:31;21.73;;;10.83;;
5587;SDS011;2816;49.778;9.986;2022-12-18T13:06:07;27.17;;;12.80;;
5587;SDS011;2816;49.778;9.986;2022-12-18T13:08:51;25.70;;;12.50;;
5587;SDS011;2816;49.778;9.986;2022-12-18T13:11:28;35.47;;;14.10;;
5587;SDS011;2816;49.778;9.986;2022-12-18T13:14:23;24.87;;;13.00;;
5587;SDS011;2816;49.778;9.986;2022-12-18T13:19:43;26.50;;;13.13;;
5587;SDS011;2816;49.778;9.986;2022-12-18T13:22:20;22.37;;;11.77;;
5587;SDS011;2816;49.778;9.986;2022-12-18T13:24:48;24.50;;;12.10;;
5587;SDS011;2816;49.778;9.986;2022-12-18T13:30:42;25.77;;;12.20;;
5587;SDS011;2816;49.778;9.986;2022-12-18T13:36:23;30.53;;;12.93;;
5587;SDS011;2816;49.778;9.986;2022-12-18T13:48:21;27.23;;;11.90;;
5587;SDS011;2816;49.778;9.986;2022-12-18T13:50:50;27.00;;;12.03;;
5587;SDS011;2816;49.778;9.986;2022-12-18T13:53:23;25.87;;;12.23;;
5587;SDS011;2816;49.778;9.986;2022-12-18T13:55:54;23.90;;;11.90;;
5587;SDS011;2816;49.778;9.986;2022-12-18T13:58:21;24.30;;;13.27;;
5587;SDS011;2816;49.778;9.986;2022-12-18T14:00:48;27.63;;;12.83;;
5587;SDS011;2816;49.778;9.986;2022-12-18T14:03:16;27.03;;;12.73;;
5587;SDS011;2816;49.778;9.986;2022-12-18T14:05:45;29.47;;;14.00;;
5587;SDS011;2816;49.778;9.986;2022-12-18T14:08:19;27.30;;;12.27;;
5587;SDS011;2816;49.778;9.986;2022-12-18T14:10:52;30.30;;;13.87;;
5587;SDS011;2816;49.778;9.986;2022-12-18T14:13:23;27.10;;;12.80;;
5587;SDS011;2816;49.778;9.986;2022-12-18T14:15:53;27.23;;;13.63;;
5587;SDS011;2816;49.778;9.986;2022-12-18T14:18:21;25.83;;;12.10;;
5587;SDS011;2816;49.778;9.986;2022-12-18T14:20:52;25.63;;;12.70;;
5587;SDS011;2816;49.778;9.986;2022-12-18T14:23:25;25.80;;;13.20;;
5587;SDS011;2816;49.778;9.986;2022-12-18T14:25:55;27.63;;;13.13;;
5587;SDS011;2816;49.778;9.986;2022-12-18T14:28:21;24.07;;;11.50;;
5587;SDS011;2816;49.778;9.986;2022-12-18T14:30:49;26.77;;;12.30;;
5587;SDS011;2816;49.778;9.986;2022-12-18T14:33:17;24.27;;;11.73;;
5587;SDS011;2816;49.778;9.986;2022-12-18T14:35:52;22.80;;;11.20;;
5587;SDS011;2816;49.778;9.986;2022-12-18T14:38:23;26.93;;;12.80;;
5587;SDS011;2816;49.778;9.986;2022-12-18T14:40:53;23.40;;;12.30;;
5587;SDS011;2816;49.778;9.986;2022-12-18T14:43:25;25.47;;;12.37;;
5587;SDS011;2816;49.778;9.986;2022-12-18T14:45:53;24.07;;;13.07;;
5587;SDS011;2816;49.778;9.986;2022-12-18T14:48:21;24.27;;;12.40;;
5587;SDS011;2816;49.778;9.986;2022-12-18T14:50:58;25.47;;;12.60;;
5587;SDS011;2816;49.778;9.986;2022-12-18T14:53:31;28.97;;;13.30;;
5587;SDS011;2816;49.778;9.986;2022-12-18T14:56:02;26.90;;;13.37;;
5587;SDS011;2816;49.778;9.986;2022-12-18T14:58:38;23.10;;;12.50;;
5587;SDS011;2816;49.778;9.986;2022-12-18T15:01:05;28.77;;;12.87;;
5587;SDS011;2816;49.778;9.986;2022-12-18T15:03:33;25.53;;;12.97;;
5587;SDS011;2816;49.778;9.986;2022-12-18T15:06:14;27.00;;;13.50;;
5587;SDS011;2816;49.778;9.986;2022-12-18T15:08:42;28.13;;;13.77;;
5587;SDS011;2816;49.778;9.986;2022-12-18T15:14:23;23.00;;;12.83;;
5587;SDS011;2816;49.778;9.986;2022-12-18T15:16:58;26.73;;;13.47;;
5587;SDS011;2816;49.778;9.986;2022-12-18T15:19:28;23.93;;;11.87;;
5587;SDS011;2816;49.778;9.986;2022-12-18T15:22:03;24.90;;;13.23;;
5587;SDS011;2816;49.778;9.986;2022-12-18T15:24:31;26.90;;;13.87;;
5587;SDS011;2816;49.778;9.986;2022-12-18T15:26:58;26.37;;;14.03;;
5587;SDS011;2816;49.778;9.986;2022-12-18T15:29:27;27.10;;;13.93;;
5587;SDS011;2816;49.778;9.986;2022-12-18T15:31:58;27.97;;;14.40;;
5587;SDS011;2816;49.778;9.986;2022-12-18T15:34:27;36.67;;;17.50;;